Time;durP1;ratioP1;P1;durP2;ratioP2;P2;SDS_P1;SDS_P2;PMS_P1;PMS_P2;Temp;Humidity;BMP_temperature;BMP_pressure;BME280_temperature;BME280_humidity;BME280_pressure;Samples;Min_cycle;Max_cycle;Signal;HPM_P1;HPM_P2
2023/09/11 00:01:32;;;;;;;;;20.25;18.75;;;;;28.71;45.01;100933.06;5058824;28;46662;-44
2023/09/11 00:03:57;;;;;;;;;15.75;13.50;;;;;28.70;45.11;100926.03;5058061;28;45260;-43
2023/09/11 00:06:23;;;;;;;;;18.25;17.00;;;;;28.74;45.22;100930.16;5058910;28;45211;-43
2023/09/11 00:08:49;;;;;;;;;18.00;15.00;;;;;28.74;44.89;100930.16;5058906;28;45418;-43
2023/09/11 00:11:14;;;;;;;;;16.50;15.50;;;;;28.73;45.17;100928.47;5058647;28;46950;-45
2023/09/11 00:13:40;;;;;;;;;20.75;18.00;;;;;28.74;45.54;100929.31;5058880;28;45375;-43
2023/09/11 00:16:05;;;;;;;;;19.00;17.00;;;;;28.74;45.30;100931.97;5058508;28;50325;-42
2023/09/11 00:18:30;;;;;;;;;21.00;17.25;;;;;28.72;45.33;100925.97;5058905;28;45328;-42
2023/09/11 00:20:56;;;;;;;;;18.25;17.25;;;;;28.70;44.98;100923.38;5058500;28;46423;-44
2023/09/11 00:23:21;;;;;;;;;17.25;16.75;;;;;28.73;45.17;100925.81;5058516;28;45322;-42
2023/09/11 00:25:46;;;;;;;;;17.25;15.50;;;;;28.73;45.84;100922.28;5058618;28;45414;-42
2023/09/11 00:28:12;;;;;;;;;17.00;16.00;;;;;28.72;45.84;100917.97;5059101;28;45553;-42
2023/09/11 00:30:37;;;;;;;;;17.75;16.75;;;;;28.73;45.10;100924.94;5058372;28;45567;-43
2023/09/11 00:33:04;;;;;;;;;21.75;18.25;;;;;28.72;45.83;100925.97;5058525;28;45346;-42
2023/09/11 00:35:29;;;;;;;;;19.75;16.75;;;;;28.72;45.88;100925.97;5058588;28;45439;-44
2023/09/11 00:37:54;;;;;;;;;17.75;17.75;;;;;28.72;45.65;100921.47;5058501;28;45505;-44
2023/09/11 00:40:19;;;;;;;;;17.75;14.75;;;;;28.72;45.20;100917.97;5057944;28;56708;-43
2023/09/11 00:42:45;;;;;;;;;18.75;16.00;;;;;28.72;45.65;100920.63;5058310;28;45369;-43
2023/09/11 00:45:11;;;;;;;;;18.75;16.50;;;;;28.71;45.43;100919.72;5058688;28;45219;-45
2023/09/11 00:47:38;;;;;;;;;17.25;15.50;;;;;28.72;45.24;100925.97;5058492;28;45526;-43
2023/09/11 00:50:04;;;;;;;;;16.00;13.00;;;;;28.72;45.52;100926.78;5058129;28;46513;-43
2023/09/11 00:52:30;;;;;;;;;16.25;14.25;;;;;28.69;45.81;100913.69;5040058;28;45434;-43
2023/09/11 00:54:56;;;;;;;;;9.25;9.25;;;;;28.69;44.98;100913.69;5058198;28;45336;-43
2023/09/11 00:57:22;;;;;;;;;16.50;13.00;;;;;28.66;45.83;100909.47;5058219;28;45368;-43
2023/09/11 00:59:51;;;;;;;;;18.00;14.75;;;;;28.68;45.18;100914.66;5056196;28;46328;-42
2023/09/11 01:02:17;;;;;;;;;15.00;13.75;;;;;28.66;45.62;100909.47;5057899;28;45795;-44
2023/09/11 01:04:43;;;;;;;;;17.75;13.50;;;;;28.66;45.43;100912.16;5058401;28;45355;-44
2023/09/11 01:07:09;;;;;;;;;14.00;13.00;;;;;28.66;45.64;100912.16;5058221;28;45192;-43
2023/09/11 01:09:34;;;;;;;;;14.00;13.25;;;;;28.65;45.09;100909.63;5057785;28;45629;-43
2023/09/11 01:12:00;;;;;;;;;14.75;14.25;;;;;28.66;45.02;100906.81;5057535;28;50105;-46
2023/09/11 01:14:26;;;;;;;;;16.50;14.75;;;;;28.65;44.87;100910.47;5057894;28;45374;-44
2023/09/11 01:17:13;;;;;;;;;17.75;15.25;;;;;28.64;44.52;100908.78;5058116;28;45404;-43
2023/09/11 01:20:09;;;;;;;;;12.50;11.50;;;;;28.64;44.21;100906.09;5022711;28;47716;-44
2023/09/11 01:23:08;;;;;;;;;12.00;12.00;;;;;28.64;44.16;100903.44;5057777;28;45261;-42
2023/09/11 01:25:39;;;;;;;;;15.25;13.50;;;;;28.62;44.34;100902.72;5057696;28;45375;-43
2023/09/11 01:28:36;;;;;;;;;15.25;13.25;;;;;28.61;44.53;100901.03;5057928;28;45360;-45
2023/09/11 01:31:02;;;;;;;;;12.25;10.00;;;;;28.60;44.66;100899.38;5018766;28;46845;-45
2023/09/11 01:33:27;;;;;;;;;13.00;13.00;;;;;28.58;43.93;100898.66;5057626;28;45920;-44
2023/09/11 01:35:52;;;;;;;;;13.00;12.75;;;;;28.58;44.39;100904.00;5057534;28;45293;-44
2023/09/11 01:38:18;;;;;;;;;15.75;13.25;;;;;28.58;44.42;100908.47;5057244;28;45486;-44
2023/09/11 01:40:47;;;;;;;;;12.50;11.50;;;;;28.57;44.40;100914.78;5057348;28;45536;-44
2023/09/11 01:43:15;;;;;;;;;12.75;11.50;;;;;28.56;44.21;100919.28;5057580;28;45803;-44
2023/09/11 01:45:41;;;;;;;;;13.75;13.75;;;;;28.55;43.79;100914.94;5057341;28;45353;-43
2023/09/11 01:48:08;;;;;;;;;14.25;13.50;;;;;28.54;44.26;100921.25;5057393;28;45574;-44
2023/09/11 01:50:35;;;;;;;;;13.25;13.25;;;;;28.52;43.58;100923.19;5055379;28;45449;-46
2023/09/11 01:53:02;;;;;;;;;11.00;10.00;;;;;28.50;43.89;100922.47;5056980;28;45818;-46
2023/09/11 01:55:28;;;;;;;;;15.50;14.00;;;;;28.50;43.79;100918.00;5057257;28;45412;-45
2023/09/11 01:57:54;;;;;;;;;13.25;12.50;;;;;28.50;43.63;100919.81;5057172;28;45408;-46
2023/09/11 02:00:20;;;;;;;;;14.50;13.75;;;;;28.50;44.36;100919.81;5057005;28;46609;-43
2023/09/11 02:02:51;;;;;;;;;12.00;12.00;;;;;28.49;43.89;100910.16;5057377;28;45375;-43
2023/09/11 02:05:16;;;;;;;;;16.50;16.00;;;;;28.48;43.81;100908.47;5057480;28;45336;-44
2023/09/11 02:07:42;;;;;;;;;15.50;13.25;;;;;28.46;44.26;100916.56;5056626;28;45558;-44
2023/09/11 02:10:08;;;;;;;;;18.75;14.00;;;;;28.46;44.28;100913.09;5056435;28;54224;-45
2023/09/11 02:12:34;;;;;;;;;13.75;12.25;;;;;28.44;43.55;100917.69;5056864;28;45364;-43
2023/09/11 02:14:59;;;;;;;;;15.00;14.00;;;;;28.43;44.25;100919.53;5056962;28;45426;-45
2023/09/11 02:17:24;;;;;;;;;13.75;11.50;;;;;28.41;44.25;100917.97;5057462;28;45424;-45
2023/09/11 02:19:50;;;;;;;;;15.50;14.00;;;;;28.38;43.64;100919.94;5056704;28;46250;-42
2023/09/11 02:22:18;;;;;;;;;16.75;14.00;;;;;28.38;43.56;100903.94;5056941;28;45438;-46
2023/09/11 02:24:43;;;;;;;;;15.25;12.25;;;;;28.38;43.81;100908.41;5056521;28;49281;-45
2023/09/11 02:27:08;;;;;;;;;15.75;15.25;;;;;28.37;44.10;100910.25;5056983;28;45288;-45
2023/09/11 02:29:34;;;;;;;;;15.75;13.25;;;;;28.37;43.88;100918.25;5056182;28;59593;-45
2023/09/11 02:32:00;;;;;;;;;15.75;14.50;;;;;28.35;43.76;100898.88;5056514;28;45207;-47
2023/09/11 02:34:26;;;;;;;;;14.50;14.00;;;;;28.36;44.38;100903.25;5056663;28;45415;-47
2023/09/11 02:36:51;;;;;;;;;15.75;14.25;;;;;28.36;44.08;100902.38;5056780;28;45409;-38
2023/09/11 02:39:16;;;;;;;;;15.00;12.00;;;;;28.34;44.25;100905.19;5056797;28;46443;-39
2023/09/11 02:41:42;;;;;;;;;15.75;14.00;;;;;28.33;43.54;100900.84;5037998;28;59380;-47
2023/09/11 02:44:07;;;;;;;;;13.75;10.50;;;;;28.31;43.53;100916.13;5055852;28;59943;-40
2023/09/11 02:46:32;;;;;;;;;12.00;11.75;;;;;28.29;44.08;100903.91;5056755;28;45384;-44
2023/09/11 02:48:58;;;;;;;;;15.25;13.00;;;;;28.28;43.96;100918.22;5055769;28;63020;-48
2023/09/11 02:51:25;;;;;;;;;15.00;14.25;;;;;28.24;44.08;100913.13;5055941;28;51046;-47
2023/09/11 02:53:50;;;;;;;;;17.25;15.00;;;;;28.23;43.47;100908.78;5056743;28;45331;-44
2023/09/11 02:56:16;;;;;;;;;12.75;12.75;;;;;28.23;44.09;100910.63;5056386;28;45486;-43
2023/09/11 02:58:41;;;;;;;;;16.75;11.50;;;;;28.20;43.83;100905.56;5055858;28;47487;-45
2023/09/11 03:01:06;;;;;;;;;15.50;12.75;;;;;28.20;43.39;100909.06;5056175;28;47296;-43
2023/09/11 03:03:32;;;;;;;;;13.75;12.00;;;;;28.18;43.31;100900.38;5056274;28;45238;-43
2023/09/11 03:05:59;;;;;;;;;10.25;10.25;;;;;28.15;43.20;100897.13;5056523;28;45162;-43
2023/09/11 03:08:25;;;;;;;;;11.75;11.75;;;;;28.10;43.13;100894.88;5056055;28;47304;-43
2023/09/11 03:10:50;;;;;;;;;18.00;13.00;;;;;28.13;43.24;100894.59;5038245;28;45359;-43
2023/09/11 03:13:16;;;;;;;;;14.00;11.75;;;;;28.12;43.68;100892.88;5056232;28;45456;-43
2023/09/11 03:15:44;;;;;;;;;16.75;14.75;;;;;28.12;43.72;100892.06;5056336;28;45439;-45
2023/09/11 03:18:10;;;;;;;;;13.25;12.75;;;;;28.11;43.21;100874.38;5055778;28;46383;-42
2023/09/11 03:20:35;;;;;;;;;14.00;12.00;;;;;28.09;43.60;100871.88;5057750;28;45258;-43
2023/09/11 03:23:01;;;;;;;;;14.00;14.00;;;;;28.07;43.27;100868.47;5059655;28;45518;-42
2023/09/11 03:25:26;;;;;;;;;18.00;15.00;;;;;28.06;43.48;100867.59;5059543;28;45549;-42
2023/09/11 03:27:52;;;;;;;;;13.50;11.00;;;;;28.06;43.28;100864.94;5059787;28;46465;-43
2023/09/11 03:30:17;;;;;;;;;11.00;9.50;;;;;28.04;43.38;100858.91;5059463;28;45221;-43
2023/09/11 03:32:43;;;;;;;;;13.00;12.75;;;;;28.04;43.66;100861.59;5059455;28;45339;-43
2023/09/11 03:35:08;;;;;;;;;12.75;12.25;;;;;28.04;43.83;100869.56;5059624;28;45245;-45
2023/09/11 03:37:34;;;;;;;;;15.00;13.50;;;;;28.02;43.43;100858.22;5059278;28;46613;-43
2023/09/11 03:39:59;;;;;;;;;13.50;12.50;;;;;28.02;43.52;100857.34;5059230;28;45359;-45
2023/09/11 03:42:24;;;;;;;;;14.50;12.00;;;;;28.03;43.17;100861.69;5059550;28;45301;-45
2023/09/11 03:44:50;;;;;;;;;14.25;14.00;;;;;28.01;43.73;100853.00;5059681;28;45378;-44
2023/09/11 03:47:15;;;;;;;;;16.00;12.00;;;;;27.99;43.57;100849.63;5059016;28;46342;-46
2023/09/11 03:49:40;;;;;;;;;13.25;12.25;;;;;27.99;43.64;100845.16;5040910;28;46139;-46
2023/09/11 03:52:06;;;;;;;;;13.75;12.50;;;;;27.98;43.35;100843.44;5059212;28;45404;-49
2023/09/11 03:54:31;;;;;;;;;16.25;14.00;;;;;27.98;43.39;100842.63;5059174;28;45569;-45
2023/09/11 03:56:56;;;;;;;;;11.00;10.00;;;;;27.96;43.09;100837.41;5058761;28;49137;-35
2023/09/11 03:59:22;;;;;;;;;13.50;10.50;;;;;27.96;43.36;100837.41;5059011;28;45478;-42
2023/09/11 04:01:47;;;;;;;;;11.50;9.75;;;;;27.94;43.45;100834.06;5058497;28;57480;-43
2023/09/11 04:04:12;;;;;;;;;12.50;10.50;;;;;27.94;43.11;100842.06;5058278;28;56838;-42
2023/09/11 04:06:38;;;;;;;;;8.50;8.50;;;;;27.92;43.34;100836.00;5058701;28;45365;-45
2023/09/11 04:09:05;;;;;;;;;11.25;11.25;;;;;27.91;42.74;100837.81;5058657;28;45491;-45
2023/09/11 04:11:31;;;;;;;;;13.25;10.25;;;;;27.90;42.59;100838.78;5058860;28;45185;-44
2023/09/11 04:13:56;;;;;;;;;9.50;9.50;;;;;27.89;42.47;100836.28;5059120;28;45173;-43
2023/09/11 04:16:22;;;;;;;;;11.00;10.00;;;;;27.88;42.36;100837.25;5058941;28;45259;-45
2023/09/11 04:18:47;;;;;;;;;9.00;9.00;;;;;27.86;42.42;100823.22;5058543;28;45541;-46
2023/09/11 04:21:13;;;;;;;;;12.75;10.75;;;;;27.83;42.54;100820.84;5058909;28;45293;-46
2023/09/11 04:23:38;;;;;;;;;12.00;9.25;;;;;27.84;43.04;100825.16;5058976;28;45565;-42
2023/09/11 04:26:03;;;;;;;;;11.50;10.25;;;;;27.79;42.73;100817.56;5058432;28;47242;-43
2023/09/11 04:28:29;;;;;;;;;11.00;9.75;;;;;27.80;42.69;100829.09;5058488;28;45308;-44
2023/09/11 04:30:54;;;;;;;;;11.50;8.50;;;;;27.78;42.68;100816.75;5058501;28;45309;-42
2023/09/11 04:33:20;;;;;;;;;14.00;9.00;;;;;27.77;42.08;100811.56;5058762;28;45212;-41
2023/09/11 04:35:45;;;;;;;;;10.00;9.00;;;;;27.76;42.48;100810.72;5058271;28;46105;-43
2023/09/11 04:38:12;;;;;;;;;13.50;11.25;;;;;27.75;42.65;100814.34;5058289;28;45293;-41
2023/09/11 04:40:38;;;;;;;;;11.50;11.50;;;;;27.74;42.77;100812.66;5058589;28;45388;-42
2023/09/11 04:43:04;;;;;;;;;11.00;11.00;;;;;27.73;42.42;100808.31;5040605;28;45335;-44
2023/09/11 04:45:29;;;;;;;;;10.00;10.00;;;;;27.72;42.50;100809.31;5058145;28;46765;-42
2023/09/11 04:47:54;;;;;;;;;11.25;10.50;;;;;27.71;42.85;100817.41;5058640;28;45356;-43
2023/09/11 04:50:20;;;;;;;;;12.00;10.00;;;;;27.70;42.92;100819.25;5058300;28;45214;-42
2023/09/11 04:52:45;;;;;;;;;11.00;11.00;;;;;27.68;42.90;100821.19;5058405;28;45494;-42
2023/09/11 04:55:11;;;;;;;;;12.25;12.00;;;;;27.69;42.57;100822.03;5058071;28;45208;-42
2023/09/11 04:57:36;;;;;;;;;11.25;10.50;;;;;27.67;42.82;100819.50;5057902;28;45356;-46
2023/09/11 05:00:09;;;;;;;;;14.25;12.75;;;;;27.65;42.55;100818.78;5058006;28;45194;-44
2023/09/11 05:02:35;;;;;;;;;14.75;11.00;;;;;27.64;42.77;100821.59;5058290;28;45526;-44
2023/09/11 05:05:00;;;;;;;;;11.75;10.75;;;;;27.65;42.88;100815.28;5057868;28;45225;-43
2023/09/11 05:07:25;;;;;;;;;12.25;10.00;;;;;27.64;43.31;100821.59;5057746;28;60365;-43
2023/09/11 05:09:51;;;;;;;;;10.50;9.00;;;;;27.62;42.52;100817.25;5058036;28;45402;-42
2023/09/11 05:12:16;;;;;;;;;9.75;9.75;;;;;27.60;42.53;100816.53;5057817;28;45952;-44
2023/09/11 05:14:41;;;;;;;;;10.00;9.00;;;;;27.59;43.13;100825.47;5057416;28;50832;-36
2023/09/11 05:17:07;;;;;;;;;14.25;9.50;;;;;27.59;42.84;100821.97;5056405;28;45237;-45
2023/09/11 05:19:32;;;;;;;;;13.25;10.00;;;;;27.58;43.00;100820.28;5056501;28;45712;-43
2023/09/11 05:21:58;;;;;;;;;10.50;10.00;;;;;27.57;43.12;100822.09;5058211;28;45248;-42
2023/09/11 05:24:23;;;;;;;;;11.25;9.75;;;;;27.57;43.31;100818.59;5057700;28;46086;-46
2023/09/11 05:26:49;;;;;;;;;13.25;11.25;;;;;27.56;42.75;100828.41;5056941;28;45415;-45
2023/09/11 05:29:14;;;;;;;;;10.75;10.75;;;;;27.56;43.24;100828.41;5057904;28;45225;-33
2023/09/11 05:31:39;;;;;;;;;10.00;9.50;;;;;27.55;43.11;100825.88;5057642;28;45615;-37
2023/09/11 05:34:05;;;;;;;;;12.50;9.75;;;;;27.54;42.86;100829.50;5056883;28;66824;-39
2023/09/11 05:36:30;;;;;;;;;12.50;9.50;;;;;27.53;43.39;100834.00;5057158;28;60285;-39
2023/09/11 05:38:55;;;;;;;;;9.50;7.75;;;;;27.52;43.11;100827.00;5057580;28;45343;-40
2023/09/11 05:41:20;;;;;;;;;9.75;9.50;;;;;27.51;42.95;100832.44;5057689;28;45351;-36
2023/09/11 05:43:46;;;;;;;;;10.50;9.75;;;;;27.49;43.32;100827.25;5056167;28;46467;-38
2023/09/11 05:46:11;;;;;;;;;17.00;12.50;;;;;27.49;43.21;100829.06;5057154;28;45376;-40
2023/09/11 05:48:36;;;;;;;;;11.50;10.00;;;;;27.49;43.04;100826.41;5057527;28;45423;-41
2023/09/11 05:51:02;;;;;;;;;11.75;9.75;;;;;27.45;43.82;100821.34;5057593;28;45932;-39
2023/09/11 05:53:27;;;;;;;;;18.50;15.00;;;;;27.49;43.41;100829.06;5057211;28;46361;-39
2023/09/11 05:55:55;;;;;;;;;14.00;13.25;;;;;27.48;43.31;100824.72;5057200;28;45458;-42
2023/09/11 05:58:20;;;;;;;;;13.25;11.00;;;;;27.48;43.72;100827.38;5057127;28;45331;-47
2023/09/11 06:00:45;;;;;;;;;12.25;12.25;;;;;27.49;43.32;100826.41;5039244;28;45665;-46
2023/09/11 06:03:11;;;;;;;;;11.75;10.00;;;;;27.45;43.48;100824.00;5056683;28;57457;-37
2023/09/11 06:05:39;;;;;;;;;11.75;10.75;;;;;27.49;43.59;100829.91;5056975;28;45333;-37
2023/09/11 06:08:05;;;;;;;;;12.00;9.25;;;;;27.48;43.15;100841.53;5057140;28;45194;-37
2023/09/11 06:10:30;;;;;;;;;11.75;10.50;;;;;27.50;43.44;100844.91;5057545;28;45362;-34
2023/09/11 06:12:55;;;;;;;;;10.25;9.00;;;;;27.50;43.47;100841.41;5056873;28;45382;-36
2023/09/11 06:15:21;;;;;;;;;12.75;12.00;;;;;27.49;43.60;100840.56;5056782;28;45404;-37
2023/09/11 06:17:46;;;;;;;;;15.25;11.25;;;;;27.48;43.52;100843.34;5056999;28;45339;-39
2023/09/11 06:20:13;;;;;;;;;13.25;10.75;;;;;27.50;43.51;100844.06;5056968;28;45439;-35
2023/09/11 06:22:39;;;;;;;;;11.50;10.25;;;;;27.48;43.90;100841.53;5056691;28;46221;-41
2023/09/11 06:25:04;;;;;;;;;13.75;11.75;;;;;27.49;43.69;100848.53;5056801;28;45734;-41
2023/09/11 06:27:30;;;;;;;;;12.00;11.00;;;;;27.48;43.59;100846.84;5039293;28;45280;-42
2023/09/11 06:29:55;;;;;;;;;11.50;11.00;;;;;27.46;43.76;100849.66;5056928;28;45625;-41
2023/09/11 06:32:21;;;;;;;;;9.75;9.25;;;;;27.47;43.65;100845.16;5056601;28;45483;-43
2023/09/11 06:34:46;;;;;;;;;14.50;10.50;;;;;27.46;43.65;100849.66;5056523;28;45498;-42
2023/09/11 06:37:11;;;;;;;;;14.25;12.25;;;;;27.48;43.74;100843.34;5056057;28;61093;-44
2023/09/11 06:39:37;;;;;;;;;12.50;12.00;;;;;27.49;43.62;100848.53;5056466;28;45673;-45
2023/09/11 06:42:03;;;;;;;;;12.75;11.50;;;;;27.49;43.74;100845.88;5056680;28;46552;-46
2023/09/11 06:44:28;;;;;;;;;14.50;11.75;;;;;27.52;43.82;100847.44;5056323;28;45297;-45
2023/09/11 06:46:53;;;;;;;;;13.00;13.00;;;;;27.52;43.93;100848.28;5055231;28;45403;-45
2023/09/11 06:49:19;;;;;;;;;13.50;12.25;;;;;27.56;43.61;100848.88;5056393;28;45600;-44
2023/09/11 06:51:44;;;;;;;;;11.75;11.75;;;;;27.55;43.47;100847.19;5056351;28;45513;-44
2023/09/11 06:54:12;;;;;;;;;12.00;11.00;;;;;27.56;43.84;100844.38;5056056;28;45313;-44
2023/09/11 06:56:40;;;;;;;;;12.50;12.50;;;;;27.58;43.66;100846.91;5038405;28;45339;-45
2023/09/11 06:59:05;;;;;;;;;13.25;11.25;;;;;27.57;43.72;100846.06;5056352;28;45542;-45
2023/09/11 07:01:31;;;;;;;;;13.75;12.75;;;;;27.59;43.51;100848.59;5055165;28;45217;-43
2023/09/11 07:03:59;;;;;;;;;17.50;10.50;;;;;27.57;43.65;100846.06;5056103;28;45249;-44
2023/09/11 07:06:24;;;;;;;;;11.25;10.25;;;;;27.60;43.48;100844.97;5056182;28;45371;-46
2023/09/11 07:08:50;;;;;;;;;12.75;10.75;;;;;27.59;43.26;100849.44;5056441;28;45510;-47
2023/09/11 07:11:18;;;;;;;;;11.00;11.00;;;;;27.60;43.58;100852.97;5056044;28;46414;-43
2023/09/11 07:13:43;;;;;;;;;12.25;10.00;;;;;27.60;43.54;100850.31;5037891;28;45986;-48
2023/09/11 07:16:09;;;;;;;;;10.00;10.00;;;;;27.60;43.38;100847.63;5055597;28;45277;-43
2023/09/11 07:18:34;;;;;;;;;11.75;11.25;;;;;27.63;43.65;100863.31;5055920;28;45308;-45
2023/09/11 07:20:59;;;;;;;;;14.00;12.00;;;;;27.63;43.50;100860.66;5055855;28;45466;-45
2023/09/11 07:23:27;;;;;;;;;13.75;9.75;;;;;27.65;43.49;100861.38;5055429;28;60099;-43
2023/09/11 07:25:55;;;;;;;;;10.75;9.75;;;;;27.66;43.36;100857.75;5037826;28;45809;-42
2023/09/11 07:28:20;;;;;;;;;13.00;8.75;;;;;27.67;43.12;100851.44;5056380;28;45487;-35
2023/09/11 07:30:46;;;;;;;;;15.50;13.25;;;;;27.68;42.98;100845.16;5055700;28;47057;-36
2023/09/11 07:33:11;;;;;;;;;14.25;12.25;;;;;27.69;42.93;100843.31;5055841;28;45449;-38
2023/09/11 07:35:37;;;;;;;;;0.00;0.00;;;;;27.69;42.97;100846.84;5038395;28;45465;-35
2023/09/11 07:38:06;;;;;;;;;13.50;12.00;;;;;27.69;42.90;100852.16;5056075;28;45392;-35
2023/09/11 07:40:31;;;;;;;;;13.75;12.25;;;;;27.67;42.92;100851.44;5055469;28;45480;-38
2023/09/11 07:42:57;;;;;;;;;11.25;9.50;;;;;27.68;43.29;100853.13;5055767;28;45504;-38
2023/09/11 07:45:22;;;;;;;;;12.25;10.75;;;;;27.69;42.60;100848.66;5054629;28;62066;-39
2023/09/11 07:47:47;;;;;;;;;13.00;10.50;;;;;27.67;42.64;100853.28;5055946;28;45595;-41
2023/09/11 07:50:15;;;;;;;;;9.50;9.50;;;;;27.68;43.17;100858.47;5055286;28;53623;-35
2023/09/11 07:52:40;;;;;;;;;2.00;1.50;;;;;27.67;42.68;100862.09;5037335;28;55449;-32
2023/09/11 07:55:06;;;;;;;;;13.75;10.25;;;;;27.68;42.72;100871.78;5055803;28;45398;-39
2023/09/11 07:57:32;;;;;;;;;10.75;8.00;;;;;27.66;42.39;100873.72;5055561;28;45474;-37
2023/09/11 08:00:03;;;;;;;;;14.00;11.00;;;;;27.68;42.62;100881.56;5055408;28;46352;-42
2023/09/11 08:02:31;;;;;;;;;13.75;12.25;;;;;27.69;42.55;100878.78;5055229;28;45220;-40
2023/09/11 08:04:56;;;;;;;;;14.00;9.25;;;;;27.68;42.42;100882.44;5055362;28;47029;-37
2023/09/11 08:07:22;;;;;;;;;11.00;11.00;;;;;27.67;42.83;100872.75;5058504;28;45370;-43
2023/09/11 08:09:47;;;;;;;;;13.25;10.00;;;;;27.67;42.87;100878.06;5058685;28;46646;-39
2023/09/11 08:12:12;;;;;;;;;9.00;9.00;;;;;27.66;42.63;100864.91;5040579;28;45802;-35
2023/09/11 08:14:38;;;;;;;;;12.50;10.75;;;;;27.65;42.49;100872.03;5058777;28;49861;-37
2023/09/11 08:17:03;;;;;;;;;12.25;11.50;;;;;27.67;42.95;100872.75;5041006;28;45706;-38
2023/09/11 08:19:29;;;;;;;;;12.50;11.00;;;;;27.66;42.75;100865.72;5040478;28;48356;-34
2023/09/11 08:21:54;;;;;;;;;9.25;8.25;;;;;27.64;42.63;100864.19;5058586;28;45289;-39
2023/09/11 08:24:20;;;;;;;;;11.75;10.50;;;;;27.67;42.34;100871.91;5058723;28;45435;-44
2023/09/11 08:26:45;;;;;;;;;11.50;10.00;;;;;27.68;42.60;100874.44;5058827;28;45481;-34
2023/09/11 08:29:12;;;;;;;;;10.25;9.75;;;;;27.64;42.44;100874.84;5058684;28;46202;-35
2023/09/11 08:31:37;;;;;;;;;15.75;9.75;;;;;27.69;42.45;100885.91;5058830;28;45374;-38
2023/09/11 08:34:03;;;;;;;;;12.00;12.00;;;;;27.69;43.06;100881.47;5058629;28;45281;-46
2023/09/11 18:38:04;;;;;;;;;7.00;7.00;;;;;28.50;46.54;100779.38;5896820;23;46583;-40
2023/09/11 18:40:29;;;;;;;;;7.75;6.00;;;;;28.52;46.33;100773.88;4957249;28;45480;-40
2023/09/11 18:42:55;;;;;;;;;6.75;6.75;;;;;28.51;45.94;100774.88;4957508;28;45248;-38
2023/09/11 18:45:21;;;;;;;;;1.00;1.00;;;;;28.51;45.78;100780.19;4957726;28;45398;-39
2023/09/11 18:47:48;;;;;;;;;5.25;5.25;;;;;28.50;45.86;100776.69;4958050;28;45459;-37
2023/09/11 18:50:13;;;;;;;;;6.25;5.50;;;;;28.50;46.32;100775.84;4956958;28;45313;-39
2023/09/11 18:52:42;;;;;;;;;7.00;5.75;;;;;28.52;45.90;100779.22;4957257;28;45283;-38
2023/09/11 18:55:08;;;;;;;;;5.50;4.00;;;;;28.54;46.32;100790.59;4957483;28;45195;-43
2023/09/11 18:57:36;;;;;;;;;7.50;6.75;;;;;28.57;46.45;100793.00;4957526;28;45178;-41
2023/09/11 19:00:05;;;;;;;;;6.00;6.00;;;;;28.59;46.35;100788.38;4956785;28;46874;-42
2023/09/11 19:02:31;;;;;;;;;7.00;5.75;;;;;28.60;45.97;100784.72;4956843;28;45440;-39
2023/09/11 19:04:57;;;;;;;;;5.50;5.50;;;;;28.63;46.19;100786.25;4939901;28;45254;-37
2023/09/11 19:07:22;;;;;;;;;7.75;6.00;;;;;28.64;45.67;100796.78;4957478;28;45228;-40
2023/09/11 19:09:48;;;;;;;;;6.75;6.75;;;;;28.65;46.24;100803.78;4957321;28;45302;-37
2023/09/11 19:12:15;;;;;;;;;5.50;5.00;;;;;28.66;45.69;100794.81;4957231;28;45622;-38
2023/09/11 19:14:41;;;;;;;;;8.25;7.00;;;;;28.69;46.19;100799.88;4957243;28;45359;-41
2023/09/11 19:17:06;;;;;;;;;7.00;5.00;;;;;28.70;45.95;100812.22;4957339;28;45513;-40
2023/09/11 19:19:32;;;;;;;;;8.00;6.50;;;;;28.75;45.39;100824.31;4956947;28;46954;-41
2023/09/11 19:21:57;;;;;;;;;6.00;6.00;;;;;28.75;45.33;100825.19;4956298;28;45401;-38
2023/09/11 19:24:22;;;;;;;;;6.50;5.50;;;;;28.75;45.10;100825.19;4956994;28;45393;-40
2023/09/11 19:26:48;;;;;;;;;7.00;5.75;;;;;28.78;45.61;100829.38;4957104;28;45496;-38
2023/09/11 19:29:17;;;;;;;;;5.25;5.25;;;;;28.78;45.30;100835.53;4956855;28;46103;-42
2023/09/11 19:31:42;;;;;;;;;6.50;6.50;;;;;28.80;45.65;100843.41;4957046;28;45606;-39
2023/09/11 19:34:08;;;;;;;;;9.00;7.75;;;;;28.80;44.95;100832.75;4957040;28;45335;-38
2023/09/11 19:36:34;;;;;;;;;7.50;6.50;;;;;28.80;45.08;100828.25;4939841;28;45558;-41
2023/09/11 19:38:59;;;;;;;;;7.00;6.00;;;;;28.80;44.83;100832.75;4956278;28;47316;-40
2023/09/11 19:41:24;;;;;;;;;6.75;6.75;;;;;28.81;44.68;100832.59;4956788;28;45291;-40
2023/09/11 19:43:50;;;;;;;;;7.75;7.00;;;;;28.81;44.57;100831.78;4956625;28;45545;-40
2023/09/11 19:46:15;;;;;;;;;6.25;5.25;;;;;28.81;44.46;100827.25;4956328;28;51005;-39
2023/09/11 19:48:41;;;;;;;;;5.50;5.25;;;;;28.79;44.28;100823.91;4956459;28;53584;-42
2023/09/11 19:51:06;;;;;;;;;6.00;6.00;;;;;28.79;44.26;100828.41;4955838;28;45547;-41
2023/09/11 19:53:31;;;;;;;;;8.00;7.00;;;;;28.80;44.23;100833.59;4955063;28;45964;-44
2023/09/11 19:55:57;;;;;;;;;6.00;4.25;;;;;28.80;44.81;100833.59;4955373;28;45511;-39
2023/09/11 19:58:22;;;;;;;;;9.00;5.75;;;;;28.81;44.86;100840.59;4956666;28;45483;-43
2023/09/11 20:00:48;;;;;;;;;6.00;6.00;;;;;28.82;44.02;100841.47;4956277;28;45412;-43
2023/09/11 20:03:17;;;;;;;;;5.75;5.75;;;;;28.84;44.81;100844.81;4959263;28;45425;-40
2023/09/11 20:05:42;;;;;;;;;8.25;6.00;;;;;28.85;43.99;100847.34;4959895;28;45276;-43
2023/09/11 20:08:07;;;;;;;;;6.75;6.75;;;;;28.86;44.69;100848.19;4959722;28;46259;-40
2023/09/11 20:10:33;;;;;;;;;10.50;6.00;;;;;28.90;44.85;100854.94;4959361;28;55781;-40
2023/09/11 20:12:58;;;;;;;;;5.25;5.00;;;;;28.91;44.33;100855.75;4959354;28;50191;-41
2023/09/11 20:15:23;;;;;;;;;6.25;6.00;;;;;28.92;44.81;100860.97;4960234;28;45585;-38
2023/09/11 20:17:48;;;;;;;;;5.50;5.50;;;;;28.93;44.63;100864.47;4959198;28;56477;-38
2023/09/11 20:20:14;;;;;;;;;9.50;7.00;;;;;28.94;44.70;100863.50;4958720;28;45152;-37
2023/09/11 20:22:39;;;;;;;;;6.75;5.50;;;;;28.94;44.24;100872.31;4959041;28;45410;-39
2023/09/11 20:25:05;;;;;;;;;7.25;5.00;;;;;28.94;44.64;100859.00;4957648;28;45524;-41
2023/09/11 20:27:30;;;;;;;;;7.00;7.00;;;;;28.94;44.33;100863.50;4956791;28;45470;-41
2023/09/11 20:29:56;;;;;;;;;7.75;5.25;;;;;28.96;44.33;100869.53;4950813;28;45632;-42
2023/09/11 20:32:21;;;;;;;;;6.00;6.00;;;;;28.95;43.82;100863.34;4958482;28;45476;-43
2023/09/11 20:34:46;;;;;;;;;7.25;7.00;;;;;28.96;44.57;100867.69;4957406;28;45453;-42
2023/09/11 20:37:12;;;;;;;;;6.25;6.25;;;;;28.96;44.29;100858.88;4958687;28;45461;-44
2023/09/11 20:39:37;;;;;;;;;7.25;6.50;;;;;28.96;44.44;100870.38;4957776;28;45368;-41
2023/09/11 20:42:03;;;;;;;;;6.00;6.00;;;;;28.97;43.95;100866.72;4956579;28;45449;-39
2023/09/11 20:44:28;;;;;;;;;7.75;6.00;;;;;28.98;43.79;100868.41;4958631;28;45528;-41
2023/09/11 20:46:54;;;;;;;;;6.00;5.00;;;;;28.97;43.68;100860.56;4958666;28;45405;-39
2023/09/11 20:49:19;;;;;;;;;9.00;6.00;;;;;28.98;44.36;100862.25;4958220;28;45541;-39
2023/09/11 20:51:44;;;;;;;;;6.00;6.00;;;;;28.98;44.04;100859.56;4958107;28;45546;-41
2023/09/11 20:54:10;;;;;;;;;5.75;5.75;;;;;28.97;43.57;100853.38;4958675;28;45547;-39
2023/09/11 20:56:36;;;;;;;;;6.00;6.00;;;;;28.98;44.34;100863.06;4949230;28;46446;-43
2023/09/11 20:59:02;;;;;;;;;5.00;3.50;;;;;28.98;43.71;100863.06;4956494;28;45866;-38
2023/09/11 21:01:27;;;;;;;;;5.00;4.75;;;;;28.97;44.01;100861.38;4957913;28;45461;-43
2023/09/11 21:03:52;;;;;;;;;6.75;4.00;;;;;28.97;44.23;100861.38;4958432;28;45373;-38
2023/09/11 21:06:19;;;;;;;;;7.00;6.00;;;;;28.98;43.71;100856.91;4957498;28;46888;-38
2023/09/11 21:08:45;;;;;;;;;5.75;5.25;;;;;28.97;43.64;100864.06;4957667;28;45462;-37
2023/09/11 21:11:10;;;;;;;;;7.25;4.00;;;;;28.98;44.05;100865.75;4957715;28;45545;-40